Time;durP1;ratioP1;P1;durP2;ratioP2;P2;SDS_P1;SDS_P2;PMS_P1;PMS_P2;Temp;Humidity;BMP_temperature;BMP_pressure;BME280_temperature;BME280_humidity;BME280_pressure;Samples;Min_cycle;Max_cycle;Signal;HPM_P1;HPM_P2
2022/11/04 00:00:29;;;;;;;15.47;9.23;;;8.60;99.90;;;8.59;95.36;99966.53;4882619;29;20482;-72
2022/11/04 00:02:58;;;;;;;12.20;8.73;;;8.60;99.90;;;8.60;95.47;99962.81;4880434;29;20423;-72
2022/11/04 00:05:27;;;;;;;14.70;8.50;;;8.60;99.90;;;8.73;94.86;99957.38;4888501;29;20441;-73
2022/11/04 00:13:30;;;;;;;17.93;7.67;;;8.80;99.90;;;8.97;93.46;99948.53;4894810;29;20427;-75
2022/11/04 00:18:51;;;;;;;12.13;7.97;;;8.90;99.90;;;9.01;93.55;99952.47;4877720;29;20512;-72
2022/11/04 00:29:43;;;;;;;14.17;7.80;;;9.00;99.90;;;9.01;93.08;99944.38;4892414;29;20522;-71
2022/11/04 00:34:58;;;;;;;8.80;7.20;;;8.90;99.90;;;9.03;93.39;99947.69;4884079;29;20829;-73
2022/11/04 00:37:27;;;;;;;12.23;8.00;;;9.00;99.90;;;8.90;93.64;99939.69;4881971;29;20485;-72
2022/11/04 00:39:56;;;;;;;14.30;8.10;;;8.90;99.90;;;8.91;93.83;99932.38;4883834;29;20735;-71
2022/11/04 00:42:26;;;;;;;10.80;7.43;;;8.90;99.90;;;8.87;94.36;99936.56;4881157;29;20471;-73
2022/11/04 00:44:55;;;;;;;12.20;7.20;;;8.90;99.90;;;8.89;94.06;99927.22;4895807;29;20405;-73
2022/11/04 00:47:24;;;;;;;12.53;8.30;;;8.90;99.90;;;8.75;94.58;99931.03;4886133;29;21018;-72
2022/11/04 00:49:53;;;;;;;13.80;8.87;;;8.80;99.90;;;8.62;95.59;99925.66;4898916;29;20405;-73
2022/11/04 00:52:22;;;;;;;10.47;7.90;;;8.80;99.90;;;8.65;96.00;99930.63;4879774;29;20528;-73
2022/11/04 00:54:51;;;;;;;18.70;7.67;;;8.70;99.90;;;8.58;96.32;99927.94;4882713;29;20516;-72
2022/11/04 00:57:20;;;;;;;19.40;8.50;;;8.70;99.90;;;8.59;96.08;99934.19;4893647;29;20448;-71
2022/11/04 00:59:50;;;;;;;18.13;8.60;;;8.70;99.90;;;8.61;96.10;99926.72;4889295;29;20484;-72
2022/11/04 01:02:19;;;;;;;14.37;9.00;;;8.60;99.90;;;8.61;96.56;99926.72;4892710;29;20208;-71
2022/11/04 01:04:48;;;;;;;11.10;8.00;;;8.60;99.90;;;8.48;97.40;99921.34;4890422;29;20425;-71
2022/11/04 01:07:17;;;;;;;13.97;9.07;;;8.50;99.90;;;8.51;97.59;99920.94;4895189;29;20272;-72
2022/11/04 01:09:46;;;;;;;9.23;8.33;;;8.60;99.90;;;8.53;97.57;99913.44;4887480;29;20441;-73
2022/11/04 01:12:16;;;;;;;14.20;10.20;;;8.60;99.90;;;8.50;97.08;99909.31;4894242;29;20468;-72
2022/11/04 01:14:48;;;;;;;13.32;9.73;;;8.50;99.90;;;8.43;97.78;99908.50;4892489;29;20446;-72
2022/11/04 01:17:19;;;;;;;14.30;8.30;;;8.40;99.90;;;8.42;98.03;99903.34;4883587;29;20207;-72
2022/11/04 01:19:47;;;;;;;14.50;9.17;;;8.50;99.90;;;8.55;97.79;99896.03;4894845;29;20446;-71
2022/11/04 01:22:16;;;;;;;12.48;9.70;;;8.50;99.90;;;8.31;98.44;99890.50;4901561;29;20934;-71
2022/11/04 01:24:45;;;;;;;16.38;9.10;;;8.40;99.90;;;8.35;99.06;99894.44;4887618;29;20249;-71
2022/11/04 01:27:14;;;;;;;11.90;8.80;;;8.40;99.90;;;8.45;98.90;99897.50;4897748;29;20222;-72
2022/11/04 01:29:43;;;;;;;14.13;9.87;;;8.40;99.90;;;8.43;98.32;99888.78;4885491;29;20300;-70
2022/11/04 01:32:12;;;;;;;16.60;10.17;;;8.40;99.90;;;8.40;98.64;99894.63;4897727;29;20505;-70
2022/11/04 01:34:42;;;;;;;11.80;9.27;;;8.40;99.90;;;8.43;98.82;99886.94;4899730;29;20447;-71
2022/11/04 01:37:11;;;;;;;11.18;9.40;;;8.40;99.90;;;8.27;99.30;99892.78;4901939;29;20485;-71
2022/11/04 01:39:44;;;;;;;21.45;10.60;;;8.30;99.90;;;8.27;99.86;99890.09;4904540;29;20206;-71
2022/11/04 01:42:16;;;;;;;12.33;10.07;;;8.30;99.90;;;8.48;99.05;99887.13;4893001;29;20218;-71
2022/11/04 01:44:55;;;;;;;21.07;10.40;;;8.40;99.90;;;8.46;98.65;99883.00;4899199;29;20449;-71
2022/11/04 01:47:37;;;;;;;16.30;8.82;;;8.40;99.90;;;8.47;98.84;99887.34;4892692;29;20508;-70
2022/11/04 01:50:14;;;;;;;14.38;9.23;;;8.40;99.90;;;8.45;98.97;99884.03;4890426;29;20244;-70
2022/11/04 01:52:50;;;;;;;15.48;9.00;;;8.50;99.90;;;8.46;98.79;99897.31;4900386;29;20221;-70
2022/11/04 01:55:24;;;;;;;13.73;10.27;;;8.40;99.90;;;8.54;98.62;99894.38;4891972;29;20198;-71
2022/11/04 01:58:01;;;;;;;12.07;8.60;;;8.50;99.90;;;8.54;98.87;99894.38;4895199;29;20439;-71
2022/11/04 02:00:30;;;;;;;18.20;8.50;;;8.50;99.90;;;8.61;98.63;99899.75;4898211;29;20210;-71
2022/11/04 02:03:09;;;;;;;12.23;8.00;;;8.50;99.90;;;8.52;98.89;99895.63;4883626;29;20206;-70
2022/11/04 02:05:41;;;;;;;15.35;9.38;;;8.50;99.90;;;8.61;99.05;99888.97;4889090;29;20225;-70
2022/11/04 02:08:14;;;;;;;18.90;9.60;;;8.50;99.90;;;8.64;98.88;99886.66;4896970;29;20202;-70
2022/11/04 02:10:52;;;;;;;18.50;8.23;;;8.60;99.90;;;8.69;98.60;99886.00;4897597;29;20405;-71
2022/11/04 02:13:25;;;;;;;10.20;8.33;;;8.60;99.90;;;8.80;97.72;99882.66;4889597;29;20492;-70
2022/11/04 02:16:07;;;;;;;9.93;7.60;;;8.70;99.90;;;8.88;97.37;99878.88;4892513;29;20953;-68
2022/11/04 02:18:54;;;;;;;15.20;9.17;;;8.80;99.90;;;8.74;97.71;99872.72;4888735;29;20413;-70
2022/11/04 02:22:07;;;;;;;15.40;9.97;;;8.70;99.90;;;8.71;98.25;99863.16;4890833;29;20441;-70
2022/11/04 02:25:31;;;;;;;15.37;9.20;;;8.70;99.90;;;8.80;98.00;99857.53;4889196;29;20413;-69
2022/11/04 02:28:41;;;;;;;10.60;7.63;;;8.80;99.90;;;8.80;97.62;99855.69;4873072;29;20546;-71
2022/11/04 02:31:23;;;;;;;13.00;8.87;;;8.80;99.90;;;8.95;97.15;99850.81;4887740;29;20445;-70
2022/11/04 02:34:01;;;;;;;12.33;9.23;;;8.80;99.90;;;8.75;97.59;99851.97;4888332;29;20807;-69
2022/11/04 02:36:44;;;;;;;15.70;9.23;;;8.80;99.90;;;8.62;98.63;99848.28;4891166;29;20498;-71
2022/11/04 02:39:32;;;;;;;15.77;8.53;;;8.70;99.90;;;8.78;98.47;99851.53;4900909;29;20444;-72
2022/11/04 02:42:13;;;;;;;14.47;9.10;;;8.70;99.90;;;8.60;98.82;99846.84;4886045;29;20467;-70
2022/11/04 02:44:50;;;;;;;19.25;11.68;;;8.70;99.90;;;8.60;99.70;99854.94;4890345;29;20423;-70
2022/11/04 02:47:28;;;;;;;17.63;9.40;;;8.60;99.90;;;8.56;99.42;99853.72;4891053;29;20218;-71
2022/11/04 02:50:06;;;;;;;17.03;10.23;;;8.60;99.90;;;8.54;99.62;99853.91;4882655;29;20948;-70
2022/11/04 02:52:48;;;;;;;16.07;8.90;;;8.60;99.90;;;8.39;100.00;99841.75;4876915;29;20466;-71
2022/11/04 02:55:26;;;;;;;12.95;9.40;;;8.50;99.90;;;8.38;100.00;99843.59;4886288;29;20419;-71
2022/11/04 02:58:01;;;;;;;11.32;8.77;;;8.40;99.90;;;8.40;100.00;99838.00;4882184;29;20202;-71
2022/11/04 03:00:32;;;;;;;14.18;10.05;;;8.40;99.90;;;8.38;100.00;99840.09;4894793;29;20823;-72
2022/11/04 03:03:09;;;;;;;15.63;8.70;;;8.40;99.90;;;8.28;100.00;99835.94;4890847;29;20209;-71
2022/11/04 03:05:44;;;;;;;20.13;9.63;;;8.40;99.90;;;8.37;100.00;99838.44;4893988;29;20213;-71
2022/11/04 03:08:26;;;;;;;11.68;9.25;;;8.40;99.90;;;8.37;100.00;99827.66;4896534;29;20253;-71
2022/11/04 03:11:03;;;;;;;14.98;9.80;;;8.40;99.90;;;8.46;100.00;99818.28;4875448;29;20274;-72
2022/11/04 03:13:39;;;;;;;19.23;8.98;;;8.40;99.90;;;8.51;100.00;99822.00;4872958;29;20186;-72
2022/11/04 03:16:14;;;;;;;13.75;9.50;;;8.40;99.90;;;8.55;100.00;99843.97;4893802;29;20230;-72
2022/11/04 03:19:00;;;;;;;18.08;9.40;;;8.50;99.90;;;8.39;100.00;99847.13;4893369;29;20684;-70
2022/11/04 03:21:35;;;;;;;13.38;8.40;;;8.40;99.90;;;8.45;100.00;99841.72;4895560;29;20772;-70
2022/11/04 03:24:06;;;;;;;13.25;9.40;;;8.40;99.90;;;8.43;100.00;99834.88;4889240;29;20660;-71
2022/11/04 03:26:44;;;;;;;19.93;9.83;;;8.40;99.90;;;8.49;100.00;99837.56;4877564;29;20225;-72
2022/11/04 03:29:26;;;;;;;15.70;9.70;;;8.50;99.90;;;8.63;100.00;99832.94;4861876;29;20442;-72
2022/11/04 03:32:07;;;;;;;14.23;9.63;;;8.50;99.90;;;8.72;100.00;99837.84;4895572;29;20596;-71
2022/11/04 03:34:38;;;;;;;11.55;7.85;;;8.60;99.90;;;8.77;99.94;99829.13;4883459;29;20761;-71
2022/11/04 03:37:08;;;;;;;10.13;8.37;;;8.70;99.90;;;8.79;100.00;99835.13;4891828;29;20230;-71
2022/11/04 03:39:39;;;;;;;19.63;8.90;;;8.70;99.90;;;8.78;99.71;99841.56;4885190;29;20435;-72
2022/11/04 03:42:20;;;;;;;15.73;9.80;;;8.70;99.90;;;8.79;99.84;99840.53;4895743;29;20462;-72
2022/11/04 03:44:51;;;;;;;21.73;9.20;;;8.70;99.90;;;9.00;98.75;99864.50;4883762;29;20505;-70
2022/11/04 03:47:24;;;;;;;14.33;9.30;;;8.80;99.90;;;9.08;97.58;99879.59;4878032;29;20870;-71
2022/11/04 03:50:02;;;;;;;23.87;10.10;;;8.90;99.90;;;8.95;97.73;99864.31;4889065;29;20451;-70
2022/11/04 03:52:31;;;;;;;18.80;9.30;;;8.90;99.90;;;9.01;98.02;99865.28;4884947;29;20474;-71
2022/11/04 03:55:00;;;;;;;14.93;8.77;;;8.90;99.90;;;9.22;97.31;99869.53;4888462;29;20498;-71
2022/11/04 03:57:48;;;;;;;12.90;8.90;;;9.00;99.90;;;9.08;97.45;99866.91;4886473;29;20530;-71
2022/11/04 04:00:21;;;;;;;12.23;9.33;;;9.00;99.90;;;9.00;98.26;99863.66;4893963;29;20469;-72
2022/11/04 04:03:06;;;;;;;14.57;8.77;;;9.00;99.90;;;8.98;98.86;99863.03;4881988;29;20484;-71
2022/11/04 04:05:48;;;;;;;10.33;8.30;;;9.00;99.90;;;8.97;98.91;99862.22;4881996;29;20219;-70
2022/11/04 04:08:32;;;;;;;10.33;8.33;;;9.00;99.90;;;9.08;98.69;99858.00;4894544;29;20794;-71
2022/11/04 04:11:12;;;;;;;11.37;9.67;;;9.00;99.90;;;9.10;98.30;99851.31;4888032;29;20430;-70
2022/11/04 04:13:53;;;;;;;12.80;8.47;;;9.00;99.90;;;9.12;98.10;99860.03;4876216;29;20799;-71
2022/11/04 04:16:29;;;;;;;14.87;10.53;;;9.10;99.90;;;9.19;97.61;99859.19;4879659;29;20722;-73
2022/11/04 04:19:04;;;;;;;14.60;8.70;;;9.10;99.90;;;9.36;97.44;99862.97;4883647;29;20419;-70
2022/11/04 04:21:43;;;;;;;14.77;8.70;;;9.20;99.90;;;9.46;95.70;99860.63;4895194;29;20556;-71
2022/11/04 04:29:52;;;;;;;13.10;9.43;;;9.40;99.90;;;9.38;95.88;99874.41;4894804;29;20453;-70
2022/11/04 04:32:26;;;;;;;12.47;8.37;;;9.30;99.90;;;9.23;96.64;99865.78;4890170;29;20451;-71
2022/11/04 04:35:40;;;;;;;15.80;9.57;;;9.30;99.90;;;9.18;97.08;99863.75;4880784;29;20417;-70
2022/11/04 04:37:48;;;;;;;14.50;9.30;;;9.20;99.90;;;9.50;95.86;99845.63;4882684;29;20969;-70
2022/11/04 04:46:03;;;;;;;14.60;9.37;;;9.30;99.90;;;9.31;97.00;99849.31;4883452;29;20521;-71
2022/11/04 04:48:32;;;;;;;16.63;9.07;;;9.30;99.90;;;9.33;96.57;99836.44;4884478;29;20413;-71
2022/11/04 04:51:01;;;;;;;16.47;9.90;;;9.30;99.90;;;9.22;97.04;99834.44;4888079;29;20413;-70
2022/11/04 04:53:32;;;;;;;16.07;10.03;;;9.20;99.90;;;9.37;97.17;99845.75;4893301;29;20461;-70
2022/11/04 04:56:00;;;;;;;14.97;9.23;;;9.30;99.90;;;9.36;96.83;99844.09;4896901;29;20532;-72
2022/11/04 04:58:29;;;;;;;13.47;8.50;;;9.30;99.90;;;9.29;97.16;99849.56;4893277;29;20414;-70
2022/11/04 05:00:58;;;;;;;13.73;8.30;;;9.30;99.90;;;9.43;96.59;99852.97;4899853;29;20850;-71
2022/11/04 05:03:27;;;;;;;13.73;8.73;;;9.40;99.90;;;9.67;95.14;99857.53;4879742;29;20530;-71
2022/11/04 05:05:59;;;;;;;8.60;7.70;;;9.50;99.90;;;9.55;95.59;99853.91;4896823;29;20956;-71
2022/11/04 05:08:28;;;;;;;22.93;9.57;;;9.50;99.90;;;9.64;95.30;99857.97;4887627;29;20410;-70
2022/11/04 05:10:59;;;;;;;18.87;11.17;;;9.50;99.90;;;9.45;95.94;99867.06;4894229;29;20435;-71
2022/11/04 05:13:28;;;;;;;16.00;9.33;;;9.40;99.90;;;9.52;95.51;99865.16;4887901;29;20957;-70
2022/11/04 05:16:02;;;;;;;18.40;9.50;;;9.50;99.90;;;9.51;95.91;99863.50;4885961;29;20439;-71
2022/11/04 05:18:31;;;;;;;13.73;9.83;;;9.50;99.90;;;9.42;96.35;99871.03;4888163;29;20410;-70
2022/11/04 05:21:04;;;;;;;12.57;9.60;;;9.40;99.90;;;9.49;96.38;99881.78;4891889;29;20470;-71
2022/11/04 05:23:33;;;;;;;19.20;10.43;;;9.40;99.90;;;9.47;96.52;99875.78;4897925;29;20524;-71
2022/11/04 05:26:05;;;;;;;18.77;9.70;;;9.40;99.90;;;9.46;96.74;99882.22;4943028;23;20475;-70
2022/11/04 05:28:34;;;;;;;11.90;9.97;;;9.40;99.90;;;9.46;96.79;99882.22;4931250;29;20421;-68
2022/11/04 05:31:05;;;;;;;10.60;8.83;;;9.40;99.90;;;9.53;96.39;99883.00;4929880;29;20861;-68
2022/11/04 05:33:34;;;;;;;11.93;9.47;;;9.40;99.90;;;9.46;96.37;99877.66;4931767;29;20408;-70
2022/11/04 05:36:08;;;;;;;25.50;11.20;;;9.40;99.90;;;9.44;96.73;99876.22;4922690;29;20462;-69
2022/11/04 05:38:40;;;;;;;21.23;11.23;;;9.40;99.90;;;9.52;97.00;99884.06;4935716;29;20436;-69
2022/11/04 05:41:24;;;;;;;13.50;10.20;;;9.50;99.90;;;9.49;97.02;99887.19;4933351;29;20437;-71
2022/11/04 05:43:54;;;;;;;14.57;8.97;;;9.50;99.90;;;9.81;95.08;99891.50;4927647;29;20420;-69
2022/11/04 05:46:24;;;;;;;15.03;9.13;;;9.60;99.90;;;9.77;94.80;99898.41;4939331;29;20424;-69
2022/11/04 05:48:53;;;;;;;14.90;10.17;;;9.60;99.90;;;9.69;95.44;99909.47;4912950;29;20412;-69
2022/11/04 05:51:25;;;;;;;14.07;9.07;;;9.60;99.90;;;9.66;95.91;99898.28;4924571;29;20484;-69
2022/11/04 05:53:54;;;;;;;17.43;10.40;;;9.60;99.90;;;9.68;96.07;99905.13;4917673;29;20429;-70
2022/11/04 05:56:24;;;;;;;15.83;10.77;;;9.60;99.90;;;9.75;95.79;99903.19;4923553;29;20441;-70
2022/11/04 05:58:54;;;;;;;15.10;11.27;;;9.60;99.90;;;9.78;95.43;99908.13;4904468;29;20460;-69
2022/11/04 06:01:31;;;;;;;15.73;10.67;;;9.70;99.90;;;9.75;95.72;99908.59;4916990;29;20474;-69
2022/11/04 06:04:01;;;;;;;15.37;9.53;;;9.70;99.90;;;9.75;95.88;99908.59;4929796;29;20508;-69
2022/11/04 06:06:33;;;;;;;19.93;10.67;;;9.70;99.90;;;9.83;95.34;99904.75;4925855;29;20459;-71
2022/11/04 06:09:03;;;;;;;12.43;9.50;;;9.80;99.90;;;9.78;95.43;99912.75;4921285;29;20916;-72
2022/11/04 06:11:35;;;;;;;21.53;11.53;;;9.70;99.90;;;9.81;96.02;99918.53;4918243;29;20439;-71
2022/11/04 06:14:05;;;;;;;13.70;9.50;;;9.70;99.90;;;10.08;94.55;99923.66;4926162;29;20408;-69
2022/11/04 06:16:33;;;;;;;16.20;11.30;;;9.90;99.90;;;9.91;94.60;99918.84;4918642;29;20460;-71
2022/11/04 06:19:02;;;;;;;28.67;11.30;;;9.90;99.90;;;9.81;95.67;99923.09;4919786;29;20846;-69
2022/11/04 06:21:37;;;;;;;15.47;10.87;;;9.80;99.90;;;9.97;95.38;99933.34;4910835;29;20400;-68
2022/11/04 06:24:07;;;;;;;17.87;10.57;;;9.90;99.90;;;9.99;95.32;99942.88;4914625;29;20408;-69
2022/11/04 06:26:38;;;;;;;14.87;9.43;;;9.90;99.90;;;10.01;95.20;99940.81;4923117;29;20924;-70
2022/11/04 06:29:46;;;;;;;12.30;9.50;;;9.90;99.90;;;10.15;94.70;99946.91;4914069;29;20411;-71
2022/11/04 06:32:18;;;;;;;13.23;10.10;;;10.00;99.90;;;10.07;94.61;99944.47;4921089;29;20784;-70
2022/11/04 06:34:50;;;;;;;16.57;11.70;;;9.90;99.90;;;10.00;95.20;99941.84;4918664;29;20796;-68
2022/11/04 06:37:18;;;;;;;16.27;11.20;;;9.90;99.90;;;10.11;94.52;99942.16;4913912;29;20922;-70
2022/11/04 06:39:47;;;;;;;12.43;10.53;;;10.00;99.90;;;10.04;94.61;99937.66;4924773;29;20434;-69
2022/11/04 06:42:27;;;;;;;12.13;10.30;;;10.00;99.90;;;10.25;93.87;99951.84;4916864;29;20472;-69
2022/11/04 06:44:56;;;;;;;19.00;9.87;;;10.00;99.90;;;10.20;93.96;99960.63;4916807;29;20765;-70
2022/11/04 06:47:24;;;;;;;14.57;11.03;;;10.00;99.90;;;10.13;94.63;99954.41;4916708;29;20444;-69
2022/11/04 06:49:53;;;;;;;17.23;11.40;;;10.00;99.90;;;10.11;95.02;99961.91;4916325;29;20427;-71
2022/11/04 06:52:22;;;;;;;15.07;11.70;;;10.00;99.90;;;10.16;94.92;99964.00;4922032;29;20831;-68
2022/11/04 06:54:51;;;;;;;13.77;10.27;;;10.00;99.90;;;10.12;94.92;99962.75;4926779;29;20437;-69
2022/11/04 06:57:19;;;;;;;15.17;11.10;;;10.00;99.90;;;10.13;95.65;99970.63;4929163;29;20464;-70
2022/11/04 06:59:50;;;;;;;18.73;11.13;;;10.00;99.90;;;10.23;95.41;99975.56;4922661;29;20449;-70
2022/11/04 07:02:18;;;;;;;12.70;11.10;;;10.10;99.90;;;10.13;95.57;99975.19;4897159;29;20484;-71
2022/11/04 07:04:48;;;;;;;15.53;11.57;;;10.00;99.90;;;10.22;95.72;99979.31;4903812;29;20479;-70
2022/11/04 07:07:17;;;;;;;16.50;11.73;;;10.10;99.90;;;10.25;95.27;99978.88;4909276;29;20980;-69
2022/11/04 07:09:46;;;;;;;15.87;11.70;;;10.10;99.90;;;10.46;94.87;99978.44;4896888;29;20942;-68
2022/11/04 07:12:15;;;;;;;16.93;11.57;;;10.20;99.90;;;10.45;94.59;99984.94;4914776;29;20549;-69
2022/11/04 07:14:44;;;;;;;14.47;11.23;;;10.30;99.90;;;10.58;94.21;99983.97;4907625;29;20442;-69
2022/11/04 07:17:14;;;;;;;14.23;10.47;;;10.40;99.90;;;10.52;95.09;99990.25;4906923;29;20922;-69
2022/11/04 07:19:43;;;;;;;11.90;10.67;;;10.40;99.90;;;10.75;93.95;99996.66;4921551;29;20434;-69
2022/11/04 07:22:12;;;;;;;14.53;12.43;;;10.60;99.90;;;10.69;94.99;99989.47;4914618;29;20853;-69
2022/11/04 07:24:42;;;;;;;16.20;11.83;;;10.60;99.90;;;10.74;95.66;99989.63;4914790;29;20448;-68
2022/11/04 07:27:11;;;;;;;18.83;13.20;;;10.60;99.90;;;10.74;96.58;99983.38;4913460;29;21025;-69
2022/11/04 07:29:40;;;;;;;15.03;11.47;;;10.60;99.90;;;10.67;97.17;99977.19;4928254;29;20455;-68
2022/11/04 07:32:08;;;;;;;18.50;12.00;;;10.60;99.90;;;10.74;98.33;99984.22;4914447;29;20904;-69
2022/11/04 07:34:39;;;;;;;16.53;12.63;;;10.60;99.90;;;10.65;99.54;99980.13;4914123;29;20911;-68
2022/11/04 07:37:07;;;;;;;15.97;12.40;;;10.50;99.90;;;10.65;100.00;99980.13;4907559;29;20953;-69
2022/11/04 07:39:37;;;;;;;20.00;12.63;;;10.50;99.90;;;10.61;100.00;99983.50;4909576;29;21003;-69
2022/11/04 07:42:08;;;;;;;18.10;12.90;;;10.50;99.90;;;10.75;100.00;99977.72;4915271;29;20541;-69
2022/11/04 07:44:37;;;;;;;15.57;11.00;;;10.50;99.90;;;10.78;100.00;99980.00;4926672;29;20968;-69
2022/11/04 07:47:06;;;;;;;16.33;11.80;;;10.60;99.90;;;10.86;100.00;99970.72;4926121;29;20441;-69
2022/11/04 07:49:35;;;;;;;19.20;14.00;;;10.60;99.90;;;11.05;100.00;99979.66;4897571;29;20447;-68
2022/11/04 07:52:11;;;;;;;18.63;12.90;;;10.80;99.90;;;11.13;100.00;99982.06;4920514;29;20441;-67
2022/11/04 07:54:40;;;;;;;13.97;11.33;;;10.90;99.90;;;10.93;100.00;99967.97;4927119;29;20433;-68
2022/11/04 07:57:09;;;;;;;16.03;11.40;;;10.70;99.90;;;10.93;100.00;99974.19;4916809;29;20456;-68
2022/11/04 07:59:38;;;;;;;15.53;11.97;;;10.70;99.90;;;11.13;100.00;99968.53;4914308;29;20422;-69
2022/11/04 08:02:07;;;;;;;17.43;13.20;;;10.80;99.90;;;11.38;100.00;99968.38;4921324;29;20701;-68
2022/11/04 08:04:36;;;;;;;13.30;11.87;;;11.00;99.90;;;11.34;99.96;99965.31;4917626;29;20475;-68
2022/11/04 08:07:48;;;;;;;20.00;12.10;;;11.00;99.90;;;11.55;98.49;99956.69;4951278;23;20506;-69
2022/11/04 08:10:22;;;;;;;16.23;12.30;;;11.20;99.90;;;11.72;96.79;99959.53;4931295;29;20482;-71
2022/11/04 08:12:52;;;;;;;19.37;14.00;;;11.30;99.90;;;11.69;97.05;99960.03;4926370;29;20419;-71
2022/11/04 08:15:23;;;;;;;20.70;12.70;;;11.40;99.90;;;11.64;97.86;99963.44;4933307;29;20954;-68
2022/11/04 08:18:12;;;;;;;15.13;12.47;;;11.40;99.90;;;11.53;98.46;99960.66;4933120;29;20530;-68
2022/11/04 08:20:46;;;;;;;17.63;15.10;;;11.30;99.90;;;11.52;99.23;99957.13;4927363;29;20448;-68
2022/11/04 08:23:15;;;;;;;19.50;12.43;;;11.30;99.90;;;11.67;98.18;99954.81;4920758;29;20495;-69
2022/11/04 08:25:46;;;;;;;19.53;14.13;;;11.40;99.90;;;11.68;98.71;99961.91;4934101;29;20456;-70
2022/11/04 08:28:17;;;;;;;20.00;15.30;;;11.40;99.90;;;11.58;99.42;99980.59;4937923;29;20415;-68
2022/11/04 08:30:57;;;;;;;21.77;13.20;;;11.30;99.90;;;11.74;97.84;99990.81;4933425;29;20521;-69
2022/11/04 08:33:27;;;;;;;19.67;12.40;;;11.50;99.90;;;11.79;98.81;99983.88;4930816;29;20425;-68
2022/11/04 08:36:05;;;;;;;19.67;12.57;;;11.60;99.90;;;11.56;99.88;99982.72;4933408;29;21017;-69
2022/11/04 08:38:34;;;;;;;16.33;12.23;;;11.40;99.90;;;11.53;100.00;99976.94;4922564;29;20483;-69
2022/11/04 08:41:08;;;;;;;16.70;13.73;;;11.30;99.90;;;11.80;100.00;99988.25;4930794;29;20894;-69
2022/11/04 08:43:38;;;;;;;17.13;12.40;;;11.50;99.90;;;11.97;99.16;99998.19;4935035;29;20855;-69
2022/11/04 08:46:10;;;;;;;16.50;13.00;;;11.60;99.90;;;11.89;98.06;99998.53;4938213;29;20546;-70
2022/11/04 08:48:41;;;;;;;11.80;9.30;;;11.70;99.90;;;11.86;99.70;100009.81;4938330;29;20431;-70
2022/11/04 08:55:19;;;;;;;17.10;10.50;;;11.60;99.90;;;11.99;99.11;99997.94;4923788;29;20427;-70
2022/11/04 08:57:49;;;;;;;16.10;11.30;;;11.70;99.90;;;11.90;98.23;99999.34;4937374;29;20432;-68
2022/11/04 09:00:19;;;;;;;14.67;9.90;;;11.70;99.90;;;11.91;98.68;100001.00;4937321;29;20411;-69
2022/11/04 09:02:48;;;;;;;14.13;9.40;;;11.70;99.90;;;12.00;99.41;100011.28;4936611;29;20407;-69
2022/11/04 09:05:17;;;;;;;15.57;11.00;;;11.70;99.90;;;11.98;100.00;100013.41;4935255;29;20885;-69
2022/11/04 09:07:46;;;;;;;12.07;9.70;;;11.70;99.90;;;11.90;99.55;100007.50;4931664;29;20937;-69
2022/11/04 09:10:16;;;;;;;19.00;10.13;;;11.70;99.90;;;12.06;99.20;100004.91;4935565;29;20450;-68
2022/11/04 09:12:45;;;;;;;26.00;16.10;;;11.80;99.90;;;11.91;99.35;100001.00;4936048;29;20854;-69
2022/11/04 09:15:15;;;;;;;17.77;13.40;;;11.60;99.90;;;11.86;98.35;99988.13;4923273;29;20414;-71
2022/11/04 09:17:44;;;;;;;16.87;10.77;;;11.70;99.90;;;11.86;98.96;99985.41;4931361;29;20424;-70
2022/11/04 09:20:13;;;;;;;17.03;9.60;;;11.70;99.90;;;11.90;98.00;99986.63;4935661;29;20411;-69
2022/11/04 09:22:42;;;;;;;15.47;10.03;;;11.70;99.90;;;11.89;98.54;99976.00;4924788;29;20416;-70
2022/11/04 09:25:13;;;;;;;13.27;11.43;;;11.70;99.90;;;11.92;99.32;99981.78;4917346;29;20915;-68
2022/11/04 09:27:42;;;;;;;12.87;11.47;;;11.70;99.90;;;11.85;98.92;99964.81;4929543;29;20423;-69
2022/11/04 09:30:14;;;;;;;12.90;9.23;;;11.60;99.90;;;11.80;99.67;99964.69;4917664;29;20462;-68
2022/11/04 09:32:43;;;;;;;17.73;10.50;;;11.60;99.90;;;11.64;100.00;99959.88;4931698;29;20432;-68
2022/11/04 09:35:20;;;;;;;14.30;9.73;;;11.50;99.90;;;11.80;100.00;99963.84;4921550;29;20418;-69
2022/11/04 09:37:49;;;;;;;16.20;8.70;;;11.50;99.90;;;11.90;99.94;99966.81;4921605;29;20441;-69
2022/11/04 09:40:23;;;;;;;15.90;9.57;;;11.60;99.90;;;11.76;99.66;99961.59;4920471;29;20412;-69
2022/11/04 09:43:13;;;;;;;15.33;10.27;;;11.50;99.90;;;11.99;98.73;99962.72;4935815;29;20391;-69
2022/11/04 09:45:45;;;;;;;12.23;8.63;;;11.70;99.90;;;11.93;98.45;99960.91;4927701;29;20463;-69
2022/11/04 09:48:26;;;;;;;13.60;9.87;;;11.70;99.90;;;11.82;98.94;99959.00;4935775;29;20625;-69
2022/11/04 09:51:01;;;;;;;12.77;8.10;;;11.60;99.90;;;11.97;98.19;99970.22;4935158;29;20523;-68
2022/11/04 09:53:41;;;;;;;15.33;8.70;;;11.70;99.90;;;11.85;98.24;99966.69;4929388;29;20418;-70
2022/11/04 09:56:18;;;;;;;10.27;8.43;;;11.60;99.90;;;11.92;98.66;99964.69;4937503;29;20947;-69
2022/11/04 09:58:49;;;;;;;13.97;10.37;;;11.70;99.90;;;11.99;96.80;99965.41;4935178;29;20407;-69
2022/11/04 10:01:31;;;;;;;20.83;9.80;;;11.70;99.90;;;12.03;97.18;99961.19;4936501;29;20780;-69
2022/11/04 10:04:26;;;;;;;12.70;7.07;;;11.80;99.90;;;12.07;96.47;99970.50;4939050;29;20476;-69
2022/11/04 10:07:17;;;;;;;10.50;8.43;;;11.80;99.90;;;12.18;95.64;99991.38;4928302;29;20497;-68
2022/11/04 10:10:04;;;;;;;10.37;7.97;;;11.90;99.90;;;12.32;95.96;100006.38;4937266;29;20414;-68
2022/11/04 10:13:01;;;;;;;12.70;8.30;;;12.00;99.90;;;12.36;94.66;100023.81;4935455;29;20435;-69
2022/11/04 10:15:59;;;;;;;9.00;7.07;;;12.10;99.90;;;12.12;95.92;100024.84;4935089;29;20563;-68
2022/11/04 10:18:50;;;;;;;9.77;8.43;;;12.00;99.90;;;12.12;96.32;100031.09;4936692;29;20817;-70
2022/11/04 10:21:39;;;;;;;13.60;7.80;;;11.90;99.90;;;12.07;95.97;100025.56;4931220;29;20514;-68
2022/11/04 10:24:20;;;;;;;12.13;8.23;;;11.90;99.90;;;12.09;95.40;100009.06;4930916;29;20468;-68
2022/11/04 10:26:58;;;;;;;16.10;8.33;;;11.90;99.90;;;12.02;95.86;100002.91;4936699;29;20503;-70
2022/11/04 10:29:41;;;;;;;13.77;8.97;;;11.90;99.90;;;12.03;97.12;100020.81;4942562;29;20415;-71
2022/11/04 10:32:18;;;;;;;12.87;9.23;;;11.80;99.90;;;12.12;97.10;100019.44;4940295;29;20406;-69
2022/11/04 10:34:58;;;;;;;10.97;7.70;;;11.80;99.90;;;11.98;96.24;100018.81;4938789;29;20439;-68
2022/11/04 10:37:28;;;;;;;15.57;7.50;;;11.80;99.90;;;12.14;95.95;100033.59;4935333;29;20436;-70
2022/11/04 10:40:17;;;;;;;13.20;8.10;;;11.90;99.90;;;12.09;95.38;100049.72;4928724;29;20904;-69
2022/11/04 10:42:46;;;;;;;10.47;8.10;;;11.90;99.90;;;12.22;96.08;100046.81;4928698;29;20450;-69
2022/11/04 10:45:15;;;;;;;12.73;8.63;;;12.00;99.90;;;12.19;94.33;100045.41;4929788;29;20454;-69
2022/11/04 10:47:56;;;;;;;11.20;8.77;;;12.00;99.90;;;12.15;93.69;100046.09;4928092;29;20447;-69
2022/11/04 10:50:36;;;;;;;12.37;9.20;;;12.00;99.90;;;12.17;95.52;100038.53;4915512;29;20445;-68
2022/11/04 10:53:20;;;;;;;20.80;9.73;;;11.90;99.90;;;12.29;94.03;100041.28;4917075;29;20440;-70
2022/11/04 10:55:59;;;;;;;11.63;9.20;;;12.00;99.90;;;12.37;93.05;100030.06;4927194;29;20530;-70
2022/11/04 10:58:34;;;;;;;13.83;8.63;;;12.10;99.90;;;12.19;92.78;100020.16;4947604;29;20419;-68
2022/11/04 11:01:26;;;;;;;11.47;9.07;;;12.10;99.90;;;11.93;94.04;100029.53;4926897;29;20403;-69
2022/11/04 11:03:56;;;;;;;13.50;7.73;;;11.90;99.90;;;11.80;95.21;100034.31;4929149;29;20823;-68
2022/11/04 11:06:31;;;;;;;13.20;7.70;;;11.70;99.90;;;11.79;94.41;100054.34;4914744;29;20838;-68
2022/11/04 11:10:18;;;;;;;20.77;14.43;;;11.70;99.90;;;11.73;95.86;100053.38;4924688;29;20547;-69
2022/11/04 11:13:50;;;;;;;12.10;9.20;;;11.60;99.90;;;11.76;94.01;100061.06;4782504;29;20453;-70
2022/11/04 11:25:45;;;;;;;10.83;8.13;;;11.70;99.90;;;12.10;93.64;100086.66;4678556;30;20512;-70
2022/11/04 11:34:44;;;;;;;10.97;8.90;;;11.90;99.90;;;12.03;95.51;100096.75;4825663;29;20419;-68
2022/11/04 11:37:23;;;;;;;11.20;8.73;;;11.80;99.90;;;12.17;94.32;100092.78;4833844;29;20465;-68